Airfield :







YOU CAN JOIN US ON...

 
LOGIN :

Register | Disclaimer

   EN    FR    IT 

 









Legend :    VFR   Marginal VFR   IFR   Intensive IFR   Very Intensive IFR
Visi :
Ceiling :
>= 8 km
>= 3000ft
5 to 8 km
1000 to 3000 ft
1500m to 5 km
500 to 1000 ft
800 to 1500m
200 to 500 ft
< 800m
< 200 ft
Symbols :   Thunderstorms  Fog  Heavy snow  Heavy precipitations  Wind > 20 kt






- Airport Elevation : 235 ft
- IATA code : MAR


SVMC - La Chinita Int.

CURRENT METAR :
  • 081102Z AUTO 35003KT NCD 26/23 Q1011

EXPIRED METARs :
  • 081002Z AUTO 03003KT NCD 27/22 Q1011
  • 080902Z AUTO 03002KT NCD 28/22 Q1012

TAF TAF SVMC
Valid from the 08 at 12:00 until the 09 at 12:00 UTC


081000Z 0812/0912 07003KT 9999 SCT100 TX34/0819Z TN25/0809Z
BECMG 0812/0816 14005KT 9000 -DZ BKN100
SVZM FIR / South America



MET'MAP, your aeronautical weather chart ! - Copyright ORBIFLY December 2007 - Disclaimer

ORBIFLY MET'MAP TEAM :

Programming & Development : Alexandra Zaïnal
Concept & original design : Baudouin d'Aumeries
Assistance for programming : Marc-Olivier Méhu
Technical & hardware support : Manuel Goepfert

Contact : metmap@orbifly.com




SOURCES & CREDITS :

   NOAA